Time;durP1;ratioP1;P1;durP2;ratioP2;P2;SDS_P1;SDS_P2;PMS_P1;PMS_P2;Temp;Humidity;BMP_temperature;BMP_pressure;BME280_temperature;BME280_humidity;BME280_pressure;Samples;Min_cycle;Max_cycle;Signal;HPM_P1;HPM_P2
2022/07/16 00:01:23;;;;;;;;;;;;;;;28.53;38.33;100645.83;105267;1300;62270;-81
2022/07/16 00:03:49;;;;;;;;;;;;;;;28.53;38.30;100647.45;105254;1300;76625;-81
2022/07/16 00:06:15;;;;;;;;;;;;;;;28.52;38.34;100646.26;105355;1300;62066;-81
2022/07/16 00:08:40;;;;;;;;;;;;;;;28.52;38.49;100653.09;105329;1300;62080;-81
2022/07/16 00:11:06;;;;;;;;;;;;;;;28.52;38.26;100657.64;105345;1300;62016;-81
2022/07/16 00:13:31;;;;;;;;;;;;;;;28.52;38.66;100651.88;105360;1300;62084;-81
2022/07/16 00:15:57;;;;;;;;;;;;;;;28.51;38.71;100654.27;105313;1299;62182;-81
2022/07/16 00:21:06;;;;;;;;;;;;;;;28.52;38.60;100648.64;105362;1300;61973;-81
2022/07/16 00:23:32;;;;;;;;;;;;;;;28.51;38.55;100649.39;105385;1300;62179;-81
2022/07/16 00:25:57;;;;;;;;;;;;;;;28.52;38.67;100654.23;105255;1300;62079;-80
2022/07/16 00:28:23;;;;;;;;;;;;;;;28.52;38.59;100654.61;105394;1300;62113;-81
2022/07/16 00:30:48;;;;;;;;;;;;;;;28.52;38.62;100655.53;105348;1300;62110;-81
2022/07/16 00:33:14;;;;;;;;;;;;;;;28.52;38.43;100651.15;105390;1300;62056;-81
2022/07/16 00:35:39;;;;;;;;;;;;;;;28.52;38.55;100657.86;105389;1300;62084;-81
2022/07/16 00:38:07;;;;;;;;;;;;;;;28.52;38.61;100660.89;105401;1300;62086;-81
2022/07/16 00:40:32;;;;;;;;;;;;;;;28.52;38.61;100659.64;105350;1300;62050;-81
2022/07/16 00:42:58;;;;;;;;;;;;;;;28.52;38.54;100658.00;105356;1299;62056;-81
2022/07/16 00:45:24;;;;;;;;;;;;;;;28.52;38.33;100658.38;105360;1299;62775;-81
2022/07/16 00:47:50;;;;;;;;;;;;;;;28.52;38.74;100656.91;105421;1300;62039;-81
2022/07/16 00:50:15;;;;;;;;;;;;;;;28.53;38.66;100655.23;105399;1300;62074;-81
2022/07/16 00:52:41;;;;;;;;;;;;;;;28.52;38.60;100654.17;105309;1300;62047;-81
2022/07/16 00:55:06;;;;;;;;;;;;;;;28.52;38.77;100656.92;105270;1300;62168;-81
2022/07/16 00:57:32;;;;;;;;;;;;;;;28.52;38.72;100659.98;105271;1300;62243;-81
2022/07/16 00:59:57;;;;;;;;;;;;;;;28.52;38.67;100658.92;105260;1300;62204;-81
2022/07/16 01:02:23;;;;;;;;;;;;;;;28.52;38.65;100658.77;105379;1299;62679;-81
2022/07/16 01:04:48;;;;;;;;;;;;;;;28.52;38.68;100661.45;105330;1299;61956;-81
2022/07/16 01:07:14;;;;;;;;;;;;;;;28.52;38.75;100658.59;105311;1299;62153;-81
2022/07/16 01:09:39;;;;;;;;;;;;;;;28.51;38.78;100658.45;105257;1298;61909;-81
2022/07/16 01:12:05;;;;;;;;;;;;;;;28.51;38.79;100657.73;105346;1300;62059;-81
2022/07/16 01:14:30;;;;;;;;;;;;;;;28.51;38.93;100651.21;105332;1299;62123;-81
2022/07/16 01:16:56;;;;;;;;;;;;;;;28.50;38.66;100650.39;105264;1300;62598;-81
2022/07/16 01:19:22;;;;;;;;;;;;;;;28.50;38.77;100655.45;105229;1300;62200;-81
2022/07/16 01:21:47;;;;;;;;;;;;;;;28.51;38.93;100655.09;105363;1300;62062;-81
2022/07/16 01:24:12;;;;;;;;;;;;;;;28.50;38.77;100652.77;105283;1299;62029;-81
2022/07/16 01:26:38;;;;;;;;;;;;;;;28.51;38.90;100656.38;105322;1300;62216;-80
2022/07/16 01:29:03;;;;;;;;;;;;;;;28.50;38.91;100653.52;105328;1300;62088;-81
2022/07/16 01:31:29;;;;;;;;;;;;;;;28.49;38.78;100654.11;105263;1300;62180;-81
2022/07/16 01:36:38;;;;;;;;;;;;;;;28.50;38.68;100655.92;105347;1299;76587;-81
2022/07/16 01:39:04;;;;;;;;;;;;;;;28.50;39.00;100654.80;105307;1300;62177;-81
2022/07/16 01:41:30;;;;;;;;;;;;;;;28.49;38.87;100651.40;105245;1300;61991;-81
2022/07/16 01:43:56;;;;;;;;;;;;;;;28.49;39.05;100649.46;105332;1300;62040;-81
2022/07/16 01:46:21;;;;;;;;;;;;;;;28.49;38.97;100649.09;105329;1300;62216;-81
2022/07/16 01:48:47;;;;;;;;;;;;;;;28.50;38.86;100651.02;105343;1300;62062;-81
2022/07/16 01:51:12;;;;;;;;;;;;;;;28.50;39.13;100655.92;105368;1300;63235;-81
2022/07/16 01:53:37;;;;;;;;;;;;;;;28.49;39.16;100652.73;105265;1300;62064;-80
2022/07/16 01:56:03;;;;;;;;;;;;;;;28.49;39.00;100656.73;105347;1300;62215;-80
2022/07/16 01:58:29;;;;;;;;;;;;;;;28.49;39.04;100652.55;105263;1300;62117;-80
2022/07/16 02:00:54;;;;;;;;;;;;;;;28.49;39.24;100656.94;105298;1300;62254;-80
2022/07/16 02:03:20;;;;;;;;;;;;;;;28.49;39.18;100656.19;105190;1300;61974;-81
2022/07/16 02:05:45;;;;;;;;;;;;;;;28.48;39.17;100656.05;105267;1300;62287;-81
2022/07/16 02:08:11;;;;;;;;;;;;;;;28.48;39.20;100656.09;105352;1300;62214;-81
2022/07/16 02:10:37;;;;;;;;;;;;;;;28.49;39.26;100655.09;105253;1300;62074;-81
2022/07/16 02:13:03;;;;;;;;;;;;;;;28.48;38.98;100652.86;105229;1303;62052;-81
2022/07/16 02:15:28;;;;;;;;;;;;;;;28.49;39.33;100657.85;105231;1300;61957;-81
2022/07/16 02:17:54;;;;;;;;;;;;;;;28.48;39.18;100658.63;105348;1300;62107;-81
2022/07/16 02:20:19;;;;;;;;;;;;;;;28.48;39.35;100664.77;105360;1300;62080;-81
2022/07/16 02:22:45;;;;;;;;;;;;;;;28.49;39.36;100665.45;105254;1300;62054;-81
2022/07/16 02:25:10;;;;;;;;;;;;;;;28.48;39.36;100665.02;105310;1300;62084;-81
2022/07/16 02:27:36;;;;;;;;;;;;;;;28.48;39.34;100667.15;105350;1300;62062;-81
2022/07/16 02:30:01;;;;;;;;;;;;;;;28.48;39.36;100666.64;105278;1300;63255;-81
2022/07/16 02:32:27;;;;;;;;;;;;;;;28.48;39.42;100667.90;105254;1299;62049;-80
2022/07/16 02:34:53;;;;;;;;;;;;;;;28.48;39.52;100669.13;105252;1300;62058;-80
2022/07/16 02:37:18;;;;;;;;;;;;;;;28.47;39.43;100673.77;105281;1300;62129;-80
2022/07/16 02:39:44;;;;;;;;;;;;;;;28.47;39.33;100678.08;105379;1300;62314;-80
2022/07/16 02:42:09;;;;;;;;;;;;;;;28.47;39.19;100676.63;105336;1300;62084;-80
2022/07/16 02:44:35;;;;;;;;;;;;;;;28.47;39.42;100678.83;105276;1300;62891;-80
2022/07/16 02:47:00;;;;;;;;;;;;;;;28.48;39.27;100680.97;105344;1299;62177;-80
2022/07/16 02:49:26;;;;;;;;;;;;;;;28.47;39.24;100683.73;105274;1300;62089;-80
2022/07/16 02:51:51;;;;;;;;;;;;;;;28.46;39.15;100683.27;105244;1300;62068;-80
2022/07/16 02:54:16;;;;;;;;;;;;;;;28.47;39.37;100688.66;105377;1300;62097;-80
2022/07/16 02:56:42;;;;;;;;;;;;;;;28.47;39.39;100688.44;105341;1298;62072;-80
2022/07/16 02:59:07;;;;;;;;;;;;;;;28.47;39.20;100689.88;105317;1300;62055;-80
2022/07/16 03:01:33;;;;;;;;;;;;;;;28.47;39.55;100691.48;105308;1300;62160;-80
2022/07/16 03:03:58;;;;;;;;;;;;;;;28.46;39.61;100695.35;105259;1300;62065;-80
2022/07/16 03:06:24;;;;;;;;;;;;;;;28.47;39.48;100700.20;105271;1300;62197;-81
2022/07/16 03:08:50;;;;;;;;;;;;;;;28.47;39.51;100703.63;105249;1300;62503;-80
2022/07/16 03:11:16;;;;;;;;;;;;;;;28.47;39.26;100709.44;105284;1300;62162;-81
2022/07/16 03:13:41;;;;;;;;;;;;;;;28.47;39.44;100707.11;105290;1300;62122;-81
2022/07/16 03:16:07;;;;;;;;;;;;;;;28.47;39.47;100711.73;105281;1300;62040;-81
2022/07/16 03:18:32;;;;;;;;;;;;;;;28.48;39.73;100714.27;105362;1298;62047;-81
2022/07/16 03:20:58;;;;;;;;;;;;;;;28.47;39.41;100713.75;105363;1300;62181;-81
2022/07/16 03:23:23;;;;;;;;;;;;;;;28.47;39.32;100715.04;105224;1300;62122;-81
2022/07/16 03:25:48;;;;;;;;;;;;;;;28.47;39.39;100716.80;105267;1300;62122;-81
2022/07/16 03:28:15;;;;;;;;;;;;;;;28.47;39.56;100720.09;105388;1300;62172;-81
2022/07/16 03:30:40;;;;;;;;;;;;;;;28.48;39.52;100727.09;105253;1299;62229;-81
2022/07/16 03:33:06;;;;;;;;;;;;;;;28.47;39.48;100725.48;105338;1300;62817;-81
2022/07/16 03:35:32;;;;;;;;;;;;;;;28.48;39.60;100729.44;105197;1300;61910;-81
2022/07/16 03:40:41;;;;;;;;;;;;;;;28.48;39.46;100732.15;105269;1300;62081;-81
2022/07/16 03:43:07;;;;;;;;;;;;;;;28.48;39.46;100732.68;105264;1300;62040;-81
2022/07/16 03:45:32;;;;;;;;;;;;;;;28.48;39.47;100733.79;105272;1300;62084;-81
2022/07/16 03:47:58;;;;;;;;;;;;;;;28.48;39.50;100737.52;105321;1300;62260;-81
2022/07/16 03:50:24;;;;;;;;;;;;;;;28.48;39.70;100738.45;105327;1300;62079;-81
2022/07/16 03:52:49;;;;;;;;;;;;;;;28.48;39.62;100740.43;105263;1300;62138;-81
2022/07/16 03:55:15;;;;;;;;;;;;;;;28.48;39.72;100741.70;105227;1300;62056;-81
2022/07/16 03:57:41;;;;;;;;;;;;;;;28.48;39.78;100745.19;105244;1300;62093;-81
2022/07/16 04:00:07;;;;;;;;;;;;;;;28.48;39.73;100749.32;105384;1300;62057;-81
2022/07/16 04:02:33;;;;;;;;;;;;;;;28.49;39.73;100753.77;105400;1300;62077;-81
2022/07/16 04:04:59;;;;;;;;;;;;;;;28.49;39.70;100753.02;105247;1300;62084;-81
2022/07/16 04:07:24;;;;;;;;;;;;;;;28.49;39.94;100756.27;105356;1300;62194;-81
2022/07/16 04:09:50;;;;;;;;;;;;;;;28.49;39.71;100755.95;105306;1298;75783;-81
2022/07/16 04:12:15;;;;;;;;;;;;;;;28.49;39.52;100761.48;105281;1298;62094;-81
2022/07/16 04:14:41;;;;;;;;;;;;;;;28.49;39.63;100760.80;105159;1301;62180;-81
2022/07/16 04:17:06;;;;;;;;;;;;;;;28.50;39.74;100766.70;105312;1299;62046;-81
2022/07/16 04:19:31;;;;;;;;;;;;;;;28.49;39.68;100763.65;105323;1300;62182;-81
2022/07/16 04:21:57;;;;;;;;;;;;;;;28.50;39.95;100766.88;105356;1300;62089;-81
2022/07/16 04:24:22;;;;;;;;;;;;;;;28.50;39.86;100766.98;105303;1300;62264;-81
2022/07/16 04:26:48;;;;;;;;;;;;;;;28.51;39.68;100769.89;105310;1300;62140;-81
2022/07/16 04:29:14;;;;;;;;;;;;;;;28.51;39.68;100772.02;105285;1300;61950;-81
2022/07/16 04:31:39;;;;;;;;;;;;;;;28.51;39.80;100767.97;105387;1299;62064;-81
2022/07/16 04:34:06;;;;;;;;;;;;;;;28.52;40.05;100766.65;105341;1300;75442;-80
2022/07/16 04:36:32;;;;;;;;;;;;;;;28.53;39.67;100771.11;105352;1298;62183;-80
2022/07/16 04:38:58;;;;;;;;;;;;;;;28.53;39.93;100766.93;105378;1296;62084;-80
2022/07/16 04:41:23;;;;;;;;;;;;;;;28.54;39.84;100770.30;105306;1300;62059;-81
2022/07/16 04:43:49;;;;;;;;;;;;;;;28.53;39.74;100769.56;105284;1300;62100;-81
2022/07/16 04:46:14;;;;;;;;;;;;;;;28.54;40.01;100773.36;105354;1298;62067;-82
2022/07/16 04:48:40;;;;;;;;;;;;;;;28.55;39.81;100771.98;105358;1300;62088;-82
2022/07/16 04:51:05;;;;;;;;;;;;;;;28.56;39.85;100774.92;105296;1300;62068;-82
2022/07/16 04:53:31;;;;;;;;;;;;;;;28.56;39.91;100776.87;105250;1300;62081;-82
2022/07/16 04:55:56;;;;;;;;;;;;;;;28.58;39.88;100780.71;105359;1300;62062;-81
2022/07/16 04:58:22;;;;;;;;;;;;;;;28.58;39.75;100780.64;105364;1300;62082;-81
2022/07/16 05:00:47;;;;;;;;;;;;;;;28.60;39.94;100782.09;105389;1300;62149;-81
2022/07/16 05:03:13;;;;;;;;;;;;;;;28.61;39.70;100781.30;105270;1300;62136;-81
2022/07/16 05:05:39;;;;;;;;;;;;;;;28.62;40.11;100778.84;105338;1300;62551;-81
2022/07/16 05:08:06;;;;;;;;;;;;;;;28.63;39.81;100779.79;105275;1300;62117;-81
2022/07/16 05:10:31;;;;;;;;;;;;;;;28.64;40.06;100780.98;105282;1300;62090;-81
2022/07/16 05:12:57;;;;;;;;;;;;;;;28.65;40.29;100777.45;105279;1300;62245;-81
2022/07/16 05:15:22;;;;;;;;;;;;;;;28.65;40.10;100780.88;105412;1299;62575;-81
2022/07/16 05:17:48;;;;;;;;;;;;;;;28.66;40.01;100785.88;105271;1300;72796;-81
2022/07/16 05:20:13;;;;;;;;;;;;;;;28.67;40.22;100788.71;105294;1300;62608;-81
2022/07/16 05:22:39;;;;;;;;;;;;;;;28.67;40.20;100793.77;105290;1300;62055;-81
2022/07/16 05:25:06;;;;;;;;;;;;;;;28.68;40.05;100796.94;105372;1300;62165;-81
2022/07/16 05:27:31;;;;;;;;;;;;;;;28.68;40.19;100801.08;105291;1298;62170;-81
2022/07/16 05:29:56;;;;;;;;;;;;;;;28.68;40.25;100803.56;105279;1300;62262;-81
2022/07/16 05:32:22;;;;;;;;;;;;;;;28.69;40.12;100805.08;105403;1298;62086;-81
2022/07/16 05:34:47;;;;;;;;;;;;;;;28.70;39.81;100801.59;105276;1300;62071;-81
2022/07/16 05:37:13;;;;;;;;;;;;;;;28.70;40.16;100806.29;105290;1300;61989;-81
2022/07/16 05:39:38;;;;;;;;;;;;;;;28.70;40.27;100805.67;105183;1300;62058;-81
2022/07/16 05:42:04;;;;;;;;;;;;;;;28.71;40.06;100807.10;105315;1300;62075;-81
2022/07/16 05:44:30;;;;;;;;;;;;;;;28.72;40.22;100814.61;105411;1300;62100;-81
2022/07/16 05:46:55;;;;;;;;;;;;;;;28.72;40.16;100816.01;105168;1300;63137;-81
2022/07/16 05:49:21;;;;;;;;;;;;;;;28.73;40.14;100816.28;105282;1299;62846;-81
2022/07/16 05:51:46;;;;;;;;;;;;;;;28.73;40.00;100821.38;105249;1299;62088;-81
2022/07/16 05:54:12;;;;;;;;;;;;;;;28.72;40.26;100820.15;104968;1300;62209;-81
2022/07/16 05:56:37;;;;;;;;;;;;;;;28.74;40.03;100817.48;105175;1303;62174;-81
2022/07/16 05:59:03;;;;;;;;;;;;;;;28.74;40.15;100821.25;104954;1301;62178;-81
2022/07/16 06:01:29;;;;;;;;;;;;;;;28.75;40.19;100825.49;104931;1300;62137;-81
2022/07/16 06:03:54;;;;;;;;;;;;;;;28.75;40.13;100823.97;105118;1300;62197;-81
2022/07/16 06:06:19;;;;;;;;;;;;;;;28.77;40.13;100829.27;105124;1301;62675;-80
2022/07/16 06:08:45;;;;;;;;;;;;;;;28.78;40.16;100832.10;105132;1300;62104;-81
2022/07/16 06:11:10;;;;;;;;;;;;;;;28.78;40.40;100829.17;105100;1300;62073;-81
2022/07/16 06:13:36;;;;;;;;;;;;;;;28.78;40.15;100829.92;105246;1300;62059;-81
2022/07/16 06:16:02;;;;;;;;;;;;;;;28.77;40.37;100828.88;105164;1303;61967;-81
2022/07/16 06:18:27;;;;;;;;;;;;;;;28.78;40.26;100827.89;105201;1300;62219;-81
2022/07/16 06:20:53;;;;;;;;;;;;;;;28.79;40.25;100827.97;105235;1299;62142;-81
2022/07/16 06:23:18;;;;;;;;;;;;;;;28.80;40.39;100824.13;105263;1300;62065;-81
2022/07/16 06:25:44;;;;;;;;;;;;;;;28.80;40.26;100823.39;105190;1301;62085;-81
2022/07/16 06:28:10;;;;;;;;;;;;;;;28.79;40.25;100829.57;104451;1300;1028657;-81
2022/07/16 06:30:35;;;;;;;;;;;;;;;28.80;40.23;100823.50;105232;1299;62352;-81
2022/07/16 06:33:01;;;;;;;;;;;;;;;28.81;40.42;100823.84;105226;1300;62094;-81
2022/07/16 06:35:26;;;;;;;;;;;;;;;28.81;40.18;100823.25;105151;1300;62261;-81
2022/07/16 06:37:51;;;;;;;;;;;;;;;28.81;40.43;100820.54;105251;1300;62177;-81
2022/07/16 06:40:17;;;;;;;;;;;;;;;28.81;40.25;100819.92;105264;1300;62206;-81
2022/07/16 06:42:43;;;;;;;;;;;;;;;28.82;40.49;100824.77;105244;1300;62087;-81
2022/07/16 06:45:09;;;;;;;;;;;;;;;28.82;40.23;100823.13;105250;1300;62053;-81
2022/07/16 06:47:34;;;;;;;;;;;;;;;28.83;40.44;100823.77;105132;1300;62056;-81
2022/07/16 06:50:00;;;;;;;;;;;;;;;28.83;40.18;100822.89;105242;1300;62081;-81
2022/07/16 06:52:26;;;;;;;;;;;;;;;28.83;40.18;100822.32;105174;1303;73647;-81
2022/07/16 06:54:51;;;;;;;;;;;;;;;28.83;40.37;100825.88;105223;1300;60053;-81
2022/07/16 06:57:18;;;;;;;;;;;;;;;28.84;40.37;100825.67;105086;1303;63451;-81
2022/07/16 06:59:45;;;;;;;;;;;;;;;28.84;40.28;100823.14;104962;1301;62087;-81
2022/07/16 07:02:10;;;;;;;;;;;;;;;28.84;40.27;100827.63;104907;1300;62140;-81
2022/07/16 07:04:35;;;;;;;;;;;;;;;28.84;40.49;100820.52;104903;1302;62181;-81
2022/07/16 07:07:01;;;;;;;;;;;;;;;28.85;40.33;100815.77;104955;1302;62091;-81
2022/07/16 07:09:26;;;;;;;;;;;;;;;28.85;40.48;100814.08;105085;1302;62794;-81
2022/07/16 07:11:52;;;;;;;;;;;;;;;28.86;40.25;100814.06;105231;1300;62000;-81
2022/07/16 07:14:17;;;;;;;;;;;;;;;28.86;40.45;100815.10;105202;1300;62088;-81
2022/07/16 07:16:43;;;;;;;;;;;;;;;28.86;40.47;100813.07;105206;1300;62111;-81
2022/07/16 07:19:09;;;;;;;;;;;;;;;28.87;40.35;100811.23;105142;1302;62184;-81
2022/07/16 07:21:34;;;;;;;;;;;;;;;28.87;40.54;100811.41;104892;1301;61986;-81
2022/07/16 07:24:00;;;;;;;;;;;;;;;28.87;40.34;100813.21;105049;1302;62092;-81
2022/07/16 07:26:26;;;;;;;;;;;;;;;28.87;40.57;100817.69;105056;1300;62043;-81
2022/07/16 07:28:51;;;;;;;;;;;;;;;28.87;40.34;100819.33;105138;1300;62182;-81
2022/07/16 07:31:18;;;;;;;;;;;;;;;28.87;40.38;100821.84;105177;1300;62085;-81
2022/07/16 07:33:44;;;;;;;;;;;;;;;28.88;40.37;100817.83;105190;1300;62190;-81
2022/07/16 07:36:10;;;;;;;;;;;;;;;28.87;40.48;100817.66;105220;1300;62062;-81
2022/07/16 07:38:36;;;;;;;;;;;;;;;28.88;40.34;100819.84;105182;1300;62193;-81
2022/07/16 07:41:03;;;;;;;;;;;;;;;28.88;40.44;100822.91;105148;1300;74949;-81
2022/07/16 07:43:28;;;;;;;;;;;;;;;28.87;40.41;100822.76;105223;1299;62027;-81
2022/07/16 07:45:54;;;;;;;;;;;;;;;28.87;40.30;100820.08;105224;1300;62091;-81
2022/07/16 07:48:19;;;;;;;;;;;;;;;28.87;40.34;100824.25;105195;1300;62123;-81
2022/07/16 07:50:45;;;;;;;;;;;;;;;28.87;40.48;100821.70;105186;1303;61995;-81
2022/07/16 07:53:11;;;;;;;;;;;;;;;28.87;40.48;100819.19;105169;1300;62164;-81
2022/07/16 07:55:36;;;;;;;;;;;;;;;28.86;40.54;100817.78;105216;1300;62082;-82
2022/07/16 07:58:02;;;;;;;;;;;;;;;28.86;40.38;100812.52;105233;1300;62663;-82
2022/07/16 08:00:28;;;;;;;;;;;;;;;28.87;40.51;100812.70;105109;1303;62128;-83
2022/07/16 08:02:54;;;;;;;;;;;;;;;28.87;40.37;100810.70;105195;1300;62282;-83
2022/07/16 08:05:20;;;;;;;;;;;;;;;28.87;40.50;100813.41;105200;1300;62104;-83
2022/07/16 08:07:45;;;;;;;;;;;;;;;28.87;40.52;100812.16;105207;1300;62072;-82
2022/07/16 08:10:11;;;;;;;;;;;;;;;28.86;40.45;100810.52;105321;1300;62101;-82
2022/07/16 08:12:37;;;;;;;;;;;;;;;28.87;40.52;100805.27;105173;1300;62069;-82
2022/07/16 08:15:02;;;;;;;;;;;;;;;28.87;40.46;100800.00;105105;1300;62088;-82
2022/07/16 08:17:28;;;;;;;;;;;;;;;28.86;40.43;100804.75;105153;1300;62046;-82
2022/07/16 08:19:53;;;;;;;;;;;;;;;28.86;40.42;100802.04;105155;1300;62092;-82
2022/07/16 08:22:19;;;;;;;;;;;;;;;28.86;40.46;100802.79;105145;1300;62073;-82
2022/07/16 08:27:29;;;;;;;;;;;;;;;28.86;40.56;100809.27;105219;1299;76002;-82
2022/07/16 08:29:54;;;;;;;;;;;;;;;28.86;40.50;100810.92;105127;1300;62235;-82
2022/07/16 08:32:20;;;;;;;;;;;;;;;28.86;40.69;100809.85;105176;1300;62077;-82
2022/07/16 08:34:45;;;;;;;;;;;;;;;28.86;40.50;100808.96;105184;1300;62095;-82
2022/07/16 08:37:11;;;;;;;;;;;;;;;28.86;40.61;100809.30;105209;1302;62831;-82
2022/07/16 08:39:44;;;;;;;;;;;;;;;28.86;40.40;100814.70;105167;1300;76215;-82
2022/07/16 08:42:10;;;;;;;;;;;;;;;28.86;40.56;100809.81;105205;1300;61980;-82
2022/07/16 08:44:37;;;;;;;;;;;;;;;28.86;40.32;100804.02;105143;1300;61974;-82
2022/07/16 08:47:03;;;;;;;;;;;;;;;28.86;40.46;100802.02;105185;1300;72744;-82
2022/07/16 08:49:28;;;;;;;;;;;;;;;28.86;40.60;100802.95;105126;1300;62082;-82
2022/07/16 08:51:54;;;;;;;;;;;;;;;28.87;40.38;100811.79;105175;1300;62207;-82
2022/07/16 08:54:20;;;;;;;;;;;;;;;28.87;40.80;100811.23;105181;1300;62167;-82
2022/07/16 08:56:45;;;;;;;;;;;;;;;28.86;40.73;100815.45;105198;1300;62111;-82
2022/07/16 08:59:10;;;;;;;;;;;;;;;28.87;40.63;100816.50;105220;1300;72532;-82
2022/07/16 09:01:36;;;;;;;;;;;;;;;28.87;40.64;100810.70;105261;1300;62039;-82
2022/07/16 09:04:02;;;;;;;;;;;;;;;28.87;40.58;100813.42;105065;1303;62123;-81
2022/07/16 09:06:27;;;;;;;;;;;;;;;28.87;40.60;100815.76;105123;1301;62216;-81
2022/07/16 09:08:53;;;;;;;;;;;;;;;28.87;40.45;100810.70;105222;1300;62501;-81
2022/07/16 09:11:20;;;;;;;;;;;;;;;28.87;40.67;100811.55;105277;1300;62084;-81
2022/07/16 09:14:04;;;;;;;;;;;;;;;28.87;40.97;100812.88;105094;1302;78071;-81
2022/07/16 09:16:30;;;;;;;;;;;;;;;28.87;40.68;100813.02;105223;1300;62059;-81
2022/07/16 09:19:06;;;;;;;;;;;;;;;28.87;40.54;100811.23;105164;1302;62202;-81
2022/07/16 09:21:32;;;;;;;;;;;;;;;28.87;40.78;100810.80;105105;1300;72193;-81
2022/07/16 09:23:57;;;;;;;;;;;;;;;28.88;40.84;100810.76;105130;1301;62059;-81
2022/07/16 09:26:23;;;;;;;;;;;;;;;28.88;40.57;100810.05;105145;1300;63462;-81
2022/07/16 09:28:49;;;;;;;;;;;;;;;28.88;40.45;100806.42;105100;1302;62178;-81
2022/07/16 09:31:33;;;;;;;;;;;;;;;28.88;40.45;100806.92;105230;1300;62793;-81
2022/07/16 09:34:00;;;;;;;;;;;;;;;28.88;40.63;100806.52;105148;1301;74500;-81
2022/07/16 09:36:26;;;;;;;;;;;;;;;28.88;40.44;100808.55;105164;1301;62018;-81
2022/07/16 09:38:52;;;;;;;;;;;;;;;28.88;40.71;100812.34;105181;1301;63000;-81
2022/07/16 09:41:18;;;;;;;;;;;;;;;28.88;40.35;100810.70;105143;1300;62087;-81
2022/07/16 09:43:44;;;;;;;;;;;;;;;28.88;40.54;100803.50;105231;1300;62146;-81
2022/07/16 09:46:14;;;;;;;;;;;;;;;28.89;40.67;100802.52;105202;1300;62121;-81
2022/07/16 09:48:40;;;;;;;;;;;;;;;28.89;40.51;100804.52;105090;1302;61911;-81
2022/07/16 09:51:16;;;;;;;;;;;;;;;28.89;40.64;100808.63;105134;1302;73640;-81
2022/07/16 09:53:43;;;;;;;;;;;;;;;28.89;40.67;100803.57;105231;1300;76622;-81
2022/07/16 09:56:09;;;;;;;;;;;;;;;28.89;40.76;100796.64;105214;1300;61973;-81
2022/07/16 09:58:35;;;;;;;;;;;;;;;28.89;40.44;100793.41;105146;1300;62085;-81
2022/07/16 10:01:00;;;;;;;;;;;;;;;28.89;40.78;100791.75;105178;1300;62105;-81
2022/07/16 10:03:26;;;;;;;;;;;;;;;28.89;40.83;100789.77;105228;1300;62216;-81
2022/07/16 10:05:52;;;;;;;;;;;;;;;28.89;40.57;100785.98;105254;1300;62089;-81
2022/07/16 10:08:17;;;;;;;;;;;;;;;28.89;40.56;100783.46;105172;1300;62196;-81
2022/07/16 10:10:43;;;;;;;;;;;;;;;28.89;40.54;100781.33;105199;1300;62624;-81
2022/07/16 10:13:09;;;;;;;;;;;;;;;28.89;40.45;100781.11;105158;1300;62181;-81
2022/07/16 10:15:34;;;;;;;;;;;;;;;28.89;40.66;100779.33;105123;1301;62222;-81
2022/07/16 10:17:59;;;;;;;;;;;;;;;28.88;40.66;100775.38;105204;1300;62206;-82
2022/07/16 10:20:25;;;;;;;;;;;;;;;28.88;40.35;100772.84;105284;1300;62173;-81
2022/07/16 10:22:51;;;;;;;;;;;;;;;28.88;40.63;100769.37;105088;1303;62179;-81
2022/07/16 10:25:22;;;;;;;;;;;;;;;28.87;40.63;100764.41;104835;1302;62059;-81
2022/07/16 10:27:47;;;;;;;;;;;;;;;28.88;40.68;100761.80;105423;1299;75614;-82
2022/07/16 10:30:18;;;;;;;;;;;;;;;28.88;40.56;100759.25;104951;1300;62169;-82
2022/07/16 10:32:59;;;;;;;;;;;;;;;28.89;40.75;100761.55;105181;1300;61921;-82
2022/07/16 10:35:28;;;;;;;;;;;;;;;28.89;40.50;100758.59;105201;1300;72761;-81
2022/07/16 10:38:03;;;;;;;;;;;;;;;28.89;40.71;100760.77;105098;1300;76511;-81
2022/07/16 10:40:29;;;;;;;;;;;;;;;28.89;40.55;100759.11;105193;1300;62113;-82
2022/07/16 10:43:17;;;;;;;;;;;;;;;28.90;40.66;100756.36;105080;1300;62052;-82
2022/07/16 10:45:56;;;;;;;;;;;;;;;28.90;40.52;100754.70;105103;1300;72849;-81
2022/07/16 10:48:25;;;;;;;;;;;;;;;28.90;40.43;100750.53;105059;1299;76532;-81
2022/07/16 10:51:09;;;;;;;;;;;;;;;28.90;40.84;100742.92;105211;1299;61929;-82
2022/07/16 10:53:53;;;;;;;;;;;;;;;28.90;40.59;100739.48;105188;1300;62035;-82
2022/07/16 10:56:31;;;;;;;;;;;;;;;28.90;40.46;100741.46;105196;1300;72663;-81
2022/07/16 10:58:56;;;;;;;;;;;;;;;28.91;40.49;100738.18;105276;1300;75565;-81
2022/07/16 11:01:22;;;;;;;;;;;;;;;28.90;40.60;100739.83;105131;1300;62267;-81
2022/07/16 11:03:51;;;;;;;;;;;;;;;28.90;40.41;100738.04;105072;1300;62252;-81
2022/07/16 11:06:20;;;;;;;;;;;;;;;28.90;40.44;100729.91;104918;1302;72131;-81
2022/07/16 11:08:46;;;;;;;;;;;;;;;28.90;40.59;100729.16;105093;1302;75975;-81
2022/07/16 11:11:11;;;;;;;;;;;;;;;28.90;40.54;100728.48;105148;1300;62020;-81
2022/07/16 11:13:37;;;;;;;;;;;;;;;28.90;40.45;100726.44;105158;1300;62299;-81
2022/07/16 11:16:09;;;;;;;;;;;;;;;28.90;40.31;100732.25;105001;1301;62142;-81
2022/07/16 11:18:37;;;;;;;;;;;;;;;28.90;40.47;100733.17;105105;1300;76629;-81
2022/07/16 11:21:06;;;;;;;;;;;;;;;28.90;40.25;100736.46;105012;1302;62431;-81
2022/07/16 11:24:11;;;;;;;;;;;;;;;28.90;40.37;100733.89;104944;1301;62178;-81
2022/07/16 11:26:37;;;;;;;;;;;;;;;28.90;40.44;100736.80;104568;1307;72909;-81
2022/07/16 11:29:02;;;;;;;;;;;;;;;28.90;40.41;100737.52;104632;1305;60531;-81
2022/07/16 11:31:37;;;;;;;;;;;;;;;28.90;40.42;100736.05;104725;1305;62193;-81
2022/07/16 11:34:06;;;;;;;;;;;;;;;28.90;40.47;100731.68;104610;1305;62069;-81
2022/07/16 11:36:35;;;;;;;;;;;;;;;28.91;40.24;100731.11;104722;1305;72800;-81
2022/07/16 11:39:00;;;;;;;;;;;;;;;28.91;40.26;100736.34;104658;1305;73339;-82
2022/07/16 11:41:26;;;;;;;;;;;;;;;28.91;40.53;100729.62;104681;1306;62088;-81
2022/07/16 11:43:51;;;;;;;;;;;;;;;28.91;40.51;100725.95;104737;1305;62209;-81
2022/07/16 11:46:21;;;;;;;;;;;;;;;28.91;40.35;100721.80;104711;1306;62066;-81
2022/07/16 11:48:46;;;;;;;;;;;;;;;28.91;40.47;100718.58;104805;1305;61972;-81
2022/07/16 11:51:13;;;;;;;;;;;;;;;28.91;40.28;100717.25;104818;1305;62069;-82
2022/07/16 11:53:38;;;;;;;;;;;;;;;28.91;40.24;100713.85;104712;1306;62148;-81
2022/07/16 11:56:05;;;;;;;;;;;;;;;28.91;40.26;100713.44;104761;1305;62092;-81
2022/07/16 11:58:31;;;;;;;;;;;;;;;28.92;40.29;100709.44;105057;1300;62056;-81
2022/07/16 12:00:56;;;;;;;;;;;;;;;28.91;40.54;100705.47;105132;1302;62775;-81
2022/07/16 12:03:22;;;;;;;;;;;;;;;28.92;40.40;100706.11;105202;1300;62058;-81
2022/07/16 12:05:59;;;;;;;;;;;;;;;28.92;40.46;100700.67;105239;1299;61974;-81
2022/07/16 12:08:25;;;;;;;;;;;;;;;28.93;40.37;100699.92;105143;1302;76512;-81
2022/07/16 12:11:19;;;;;;;;;;;;;;;28.92;40.27;100702.65;105160;1302;62064;-81
2022/07/16 12:13:54;;;;;;;;;;;;;;;28.94;40.29;100707.41;104665;1308;61998;-82
2022/07/16 12:16:20;;;;;;;;;;;;;;;28.95;40.04;100714.20;104629;1308;72685;-81
2022/07/16 12:19:18;;;;;;;;;;;;;;;28.95;40.35;100717.98;104756;1305;62075;-81
2022/07/16 12:21:47;;;;;;;;;;;;;;;28.96;40.24;100727.36;104465;1312;62146;-82
2022/07/16 12:24:12;;;;;;;;;;;;;;;28.96;40.30;100727.08;104401;1312;62947;-82
2022/07/16 12:26:38;;;;;;;;;;;;;;;28.97;40.36;100725.96;104435;1311;62239;-82
2022/07/16 12:29:05;;;;;;;;;;;;;;;28.97;40.34;100723.25;104439;1312;62111;-81
2022/07/16 12:31:31;;;;;;;;;;;;;;;28.97;40.17;100720.16;104461;1310;61992;-81
2022/07/16 12:33:57;;;;;;;;;;;;;;;28.97;40.30;100719.79;104344;1309;62467;-81